Time;durP1;ratioP1;P1;durP2;ratioP2;P2;SDS_P1;SDS_P2;PMS_P1;PMS_P2;Temp;Humidity;BMP_temperature;BMP_pressure;BME280_temperature;BME280_humidity;BME280_pressure;Samples;Min_cycle;Max_cycle;Signal;HPM_P1;HPM_P2
2023/01/12 00:00:49;;;;;;;15.63;4.65;;;;;;;5.94;100.00;100221.94;4993918;28;20184;-42
2023/01/12 00:03:14;;;;;;;11.43;4.35;;;;;;;5.96;100.00;100213.03;5004865;28;20180;-43
2023/01/12 00:05:40;;;;;;;13.18;4.18;;;;;;;5.91;100.00;100201.66;5004255;28;20286;-41
2023/01/12 00:08:05;;;;;;;11.57;3.83;;;;;;;5.92;100.00;100208.69;5006909;28;20219;-42
2023/01/12 00:10:30;;;;;;;14.55;4.18;;;;;;;5.94;100.00;100198.91;5004170;28;20216;-43
2023/01/12 00:12:57;;;;;;;18.80;4.50;;;;;;;5.89;100.00;100198.16;5005247;28;20180;-41
2023/01/12 00:18:06;;;;;;;10.75;4.20;;;;;;;5.86;100.00;100205.34;5000978;28;20208;-44
2023/01/12 00:20:32;;;;;;;12.73;4.30;;;;;;;5.85;100.00;100212.44;5001648;28;20172;-45
2023/01/12 00:22:57;;;;;;;12.00;3.53;;;;;;;5.86;100.00;100197.38;5005019;28;20572;-42
2023/01/12 00:25:23;;;;;;;13.48;3.50;;;;;;;5.85;100.00;100200.97;5000175;28;20224;-43
2023/01/12 00:27:48;;;;;;;5.93;2.75;;;;;;;5.78;100.00;100214.41;4998335;28;20672;-42
2023/01/12 00:30:14;;;;;;;10.23;2.78;;;;;;;5.75;100.00;100214.50;5010136;28;20662;-42
2023/01/12 00:32:39;;;;;;;7.72;2.65;;;;;;;5.70;100.00;100213.75;5000165;28;20270;-44
2023/01/12 00:35:05;;;;;;;10.75;2.75;;;;;;;5.73;100.00;100228.78;5006023;28;20608;-42
2023/01/12 00:37:30;;;;;;;5.72;1.98;;;;;;;5.70;100.00;100232.34;5001767;28;20680;-42
2023/01/12 00:39:56;;;;;;;6.28;1.83;;;;;;;5.32;100.00;100263.50;5007312;28;20198;-42
2023/01/12 00:45:23;;;;;;;6.60;1.10;;;;;;;4.27;100.00;100278.34;4998145;28;20752;-43
2023/01/12 00:47:49;;;;;;;6.18;0.80;;;;;;;4.04;100.00;100262.91;4997453;28;20280;-43
2023/01/12 00:50:14;;;;;;;2.20;0.45;;;;;;;4.03;100.00;100265.59;5003404;28;20271;-43
2023/01/12 00:52:40;;;;;;;3.70;0.82;;;;;;;4.10;100.00;100259.28;4997996;28;20180;-42
2023/01/12 00:55:06;;;;;;;4.22;0.77;;;;;;;4.13;100.00;100256.53;5006932;28;20212;-41
2023/01/12 00:57:31;;;;;;;2.58;0.52;;;;;;;4.09;100.00;100253.09;5018388;28;20177;-44
2023/01/12 00:59:58;;;;;;;5.70;0.95;;;;;;;4.12;100.00;100239.78;4994781;28;20561;-43
2023/01/12 01:02:26;;;;;;;1.55;0.73;;;;;;;4.07;100.00;100256.69;4999690;28;20212;-42
2023/01/12 01:04:51;;;;;;;2.25;1.00;;;;;;;4.08;100.00;100247.81;4996828;28;20615;-45
2023/01/12 01:07:20;;;;;;;3.35;0.70;;;;;;;4.02;100.00;100238.19;5002069;28;20204;-44
2023/01/12 01:09:45;;;;;;;8.98;1.30;;;;;;;4.04;100.00;100236.41;5003396;28;20559;-43
2023/01/12 01:12:11;;;;;;;2.83;1.00;;;;;;;4.03;100.00;100234.66;4994987;28;20192;-42
2023/01/12 01:14:37;;;;;;;5.72;1.10;;;;;;;4.13;100.00;100243.28;4993669;28;20201;-42
2023/01/12 01:17:02;;;;;;;4.28;1.40;;;;;;;4.21;100.00;100244.00;5001784;28;20586;-42
2023/01/12 01:19:28;;;;;;;3.83;0.88;;;;;;;4.24;100.00;100248.34;5003743;28;20711;-44
2023/01/12 01:21:53;;;;;;;8.40;1.67;;;;;;;4.29;100.00;100244.72;4992533;28;20206;-42
2023/01/12 01:24:19;;;;;;;5.18;1.27;;;;;;;4.40;100.00;100240.97;5003057;28;20197;-41
2023/01/12 01:26:44;;;;;;;10.90;1.50;;;;;;;4.37;100.00;100244.53;5005152;28;20199;-43
2023/01/12 01:29:10;;;;;;;6.20;1.27;;;;;;;4.41;100.00;100243.56;5004405;28;20272;-42
2023/01/12 01:31:36;;;;;;;8.60;1.48;;;;;;;4.42;100.00;100247.97;4997747;28;20264;-43
2023/01/12 01:34:02;;;;;;;5.05;1.50;;;;;;;4.43;100.00;100239.09;5003364;28;20189;-44
2023/01/12 01:36:27;;;;;;;8.90;1.85;;;;;;;4.50;100.00;100242.47;4996574;28;20177;-43
2023/01/12 01:38:53;;;;;;;7.93;1.60;;;;;;;4.55;100.00;100232.66;4992286;28;20189;-44
2023/01/12 01:41:23;;;;;;;9.15;1.80;;;;;;;4.60;100.00;100227.25;4997928;28;20485;-44
2023/01/12 01:44:04;;;;;;;9.27;1.42;;;;;;;4.59;100.00;100228.13;5002214;28;20189;-42
2023/01/12 01:46:46;;;;;;;9.07;1.65;;;;;;;4.66;100.00;100224.44;5004244;28;20594;-41
2023/01/12 01:49:17;;;;;;;11.40;1.85;;;;;;;4.80;100.00;100232.94;5012270;28;20561;-42
2023/01/12 01:51:45;;;;;;;11.07;1.70;;;;;;;4.81;100.00;100220.53;5002279;28;20232;-42
2023/01/12 01:54:12;;;;;;;7.50;1.70;;;;;;;4.82;100.00;100223.16;5000273;28;20208;-44
2023/01/12 01:56:38;;;;;;;12.18;2.30;;;;;;;4.86;100.00;100231.94;5003671;28;20212;-42
2023/01/12 01:59:12;;;;;;;9.10;2.58;;;;;;;4.88;100.00;100230.09;5002827;28;20258;-43
2023/01/12 02:01:37;;;;;;;10.15;1.55;;;;;;;4.89;100.00;100214.13;4999441;28;20174;-42
2023/01/12 02:04:04;;;;;;;13.05;2.22;;;;;;;4.93;100.00;100218.44;5004009;28;20196;-42
2023/01/12 02:06:30;;;;;;;13.57;1.70;;;;;;;4.97;100.00;100216.59;4993722;28;20263;-42
2023/01/12 02:09:20;;;;;;;11.20;1.92;;;;;;;5.01;100.00;100212.97;5000473;28;20239;-42
2023/01/12 02:17:28;;;;;;;12.70;2.45;;;;;;;5.15;100.00;100209.94;4999437;28;20624;-42
2023/01/12 02:20:14;;;;;;;10.32;2.38;;;;;;;5.16;100.00;100209.03;4994981;28;20193;-42
2023/01/12 02:22:58;;;;;;;17.48;2.80;;;;;;;5.22;100.00;100208.84;4996124;28;20194;-42
2023/01/12 02:25:51;;;;;;;23.10;2.75;;;;;;;5.22;100.00;100215.97;4994799;28;20208;-42
2023/01/12 02:28:44;;;;;;;12.85;2.10;;;;;;;5.30;100.00;100209.53;4999196;28;20197;-43
2023/01/12 02:31:34;;;;;;;15.13;2.70;;;;;;;5.44;100.00;100195.00;5009718;28;20211;-42
2023/01/12 02:34:11;;;;;;;16.27;2.45;;;;;;;5.50;100.00;100195.72;4995904;28;20189;-40
2023/01/12 02:36:53;;;;;;;16.63;2.75;;;;;;;5.57;100.00;100196.41;5009129;28;20694;-41
2023/01/12 02:39:21;;;;;;;13.00;2.33;;;;;;;5.59;100.00;100210.53;5001258;28;20200;-43
2023/01/12 02:45:05;;;;;;;16.42;3.05;;;;;;;5.56;100.00;100200.00;4997568;28;20211;-41
2023/01/12 02:47:40;;;;;;;13.07;2.72;;;;;;;5.51;100.00;100212.50;4994845;28;20244;-42
2023/01/12 02:50:12;;;;;;;18.88;3.40;;;;;;;5.46;100.00;100203.81;5000229;28;20312;-42
2023/01/12 02:52:42;;;;;;;18.45;3.67;;;;;;;5.44;100.00;100200.31;4996986;28;20674;-43
2023/01/12 02:55:09;;;;;;;17.67;2.88;;;;;;;5.42;100.00;100195.03;5001551;28;20228;-42
2023/01/12 02:57:36;;;;;;;14.00;2.60;;;;;;;5.42;100.00;100197.69;4997749;28;20189;-42
2023/01/12 03:00:05;;;;;;;11.85;2.67;;;;;;;5.37;100.00;100202.28;4999025;28;20339;-43
2023/01/12 03:02:31;;;;;;;16.65;2.72;;;;;;;5.39;100.00;100196.94;4995304;28;20430;-45
2023/01/12 03:04:57;;;;;;;18.85;2.88;;;;;;;5.37;100.00;100200.47;4994136;28;20244;-42
2023/01/12 03:07:27;;;;;;;11.02;2.42;;;;;;;5.36;100.00;100190.78;5003638;28;20236;-42
2023/01/12 03:10:04;;;;;;;17.05;2.80;;;;;;;5.40;100.00;100188.03;4993581;28;20664;-42
2023/01/12 03:12:34;;;;;;;12.10;2.53;;;;;;;5.38;100.00;100185.44;5002304;28;20197;-41
2023/01/12 03:15:04;;;;;;;10.90;2.40;;;;;;;5.44;100.00;100184.38;4995404;28;20217;-40
2023/01/12 03:17:40;;;;;;;14.88;2.45;;;;;;;5.46;100.00;100177.25;5001073;28;20284;-42
2023/01/12 03:20:15;;;;;;;13.02;2.40;;;;;;;5.37;100.00;100181.88;5004457;28;20651;-44
2023/01/12 03:22:41;;;;;;;13.95;2.80;;;;;;;5.35;100.00;100182.84;4993438;28;20219;-42
2023/01/12 03:25:12;;;;;;;16.02;3.10;;;;;;;5.33;100.00;100180.22;4998224;28;20213;-43
2023/01/12 03:27:41;;;;;;;13.18;2.45;;;;;;;5.32;100.00;100197.09;4993543;28;20292;-41
2023/01/12 03:30:35;;;;;;;16.10;2.95;;;;;;;5.36;100.00;100189.91;5000343;28;20232;-42
2023/01/12 03:33:02;;;;;;;14.32;2.38;;;;;;;5.33;100.00;100189.97;4993484;28;20181;-42
2023/01/12 03:35:34;;;;;;;12.18;2.38;;;;;;;5.31;100.00;100192.72;5001849;28;20232;-41
2023/01/12 03:38:14;;;;;;;9.20;2.47;;;;;;;5.32;100.00;100189.13;4994123;28;20186;-42
2023/01/12 03:40:47;;;;;;;9.05;2.83;;;;;;;5.29;100.00;100185.66;4995480;28;20212;-41
2023/01/12 03:43:19;;;;;;;12.35;2.60;;;;;;;5.24;100.00;100175.16;4995468;28;20199;-41
2023/01/12 03:45:57;;;;;;;10.32;2.97;;;;;;;5.21;100.00;100177.91;4994992;28;20209;-42
2023/01/12 03:48:45;;;;;;;14.18;2.53;;;;;;;5.19;100.00;100178.88;4992994;28;20666;-40
2023/01/12 03:51:34;;;;;;;13.20;2.20;;;;;;;5.16;100.00;100171.88;4995701;28;20196;-40
2023/01/12 03:54:01;;;;;;;9.50;2.05;;;;;;;5.15;100.00;100164.81;5008160;28;20169;-41
2023/01/12 03:56:32;;;;;;;15.50;3.03;;;;;;;5.13;100.00;100174.59;4994297;28;20599;-41
2023/01/12 03:58:58;;;;;;;17.42;2.90;;;;;;;5.18;100.00;100166.50;4997092;28;20224;-42
2023/01/12 04:01:24;;;;;;;11.82;2.10;;;;;;;5.20;100.00;100162.88;5002990;28;20191;-42
2023/01/12 04:03:50;;;;;;;11.32;2.17;;;;;;;5.20;100.00;100170.84;4993541;28;20189;-43
2023/01/12 04:06:15;;;;;;;17.02;2.25;;;;;;;5.20;100.00;100162.88;4996444;28;20684;-41
2023/01/12 04:08:40;;;;;;;14.07;3.03;;;;;;;5.16;100.00;100158.59;5003542;28;20188;-41
2023/01/12 04:13:51;;;;;;;8.40;2.28;;;;;;;5.12;100.00;100148.97;4994145;28;20189;-42
2023/01/12 04:16:17;;;;;;;7.55;2.03;;;;;;;5.12;100.00;100156.94;5001744;28;20187;-44
2023/01/12 04:18:43;;;;;;;9.70;1.70;;;;;;;5.10;100.00;100151.66;5005045;28;20192;-42
2023/01/12 04:22:41;;;;;;;13.90;2.50;;;;;;;5.07;100.00;100149.09;4997567;28;20196;-41
2023/01/12 04:23:54;;;;;;;11.48;2.38;;;;;;;5.03;100.00;100152.72;5001923;28;20192;-41
2023/01/12 04:26:20;;;;;;;12.40;2.10;;;;;;;5.10;100.00;100151.66;5002380;28;20319;-42
2023/01/12 04:28:46;;;;;;;10.00;2.15;;;;;;;5.10;100.00;100140.16;4998470;28;20189;-39
2023/01/12 04:31:11;;;;;;;10.10;2.55;;;;;;;5.13;100.00;100140.06;5000890;28;20193;-41
2023/01/12 04:33:37;;;;;;;12.05;2.67;;;;;;;5.14;100.00;100133.88;5004745;28;20673;-42
2023/01/12 04:36:02;;;;;;;12.45;2.95;;;;;;;5.22;100.00;100138.94;4993384;28;20232;-41
2023/01/12 04:38:28;;;;;;;11.85;2.28;;;;;;;5.25;100.00;100129.13;5008947;28;20689;-44
2023/01/12 04:40:54;;;;;;;9.50;1.98;;;;;;;5.26;100.00;100125.53;5006094;28;20240;-42
2023/01/12 04:43:19;;;;;;;13.30;2.30;;;;;;;5.25;100.00;100126.47;5009174;28;20193;-42
2023/01/12 04:45:46;;;;;;;11.73;2.53;;;;;;;5.31;100.00;100128.06;4999258;28;20208;-42
2023/01/12 04:48:14;;;;;;;7.53;2.28;;;;;;;5.32;100.00;100124.50;5009185;28;20188;-41
2023/01/12 04:50:40;;;;;;;10.98;2.42;;;;;;;5.26;100.00;100125.53;4999481;28;20185;-42
2023/01/12 04:53:08;;;;;;;13.23;2.17;;;;;;;5.16;100.00;100124.94;4998337;28;20200;-40
2023/01/12 04:55:39;;;;;;;8.15;2.17;;;;;;;5.19;100.00;100108.03;5004129;28;20205;-42
2023/01/12 04:58:05;;;;;;;9.88;2.08;;;;;;;5.16;100.00;100116.09;5003052;28;20188;-42
2023/01/12 05:00:30;;;;;;;11.10;2.55;;;;;;;5.14;100.00;100117.94;5005265;28;20183;-42
2023/01/12 05:02:59;;;;;;;12.57;1.90;;;;;;;5.08;100.00;100113.66;4999330;28;20201;-42
2023/01/12 05:05:25;;;;;;;12.20;1.92;;;;;;;5.07;100.00;100103.94;4999063;28;20545;-43
2023/01/12 05:10:35;;;;;;;9.93;2.25;;;;;;;5.09;100.00;100091.47;5004364;28;20177;-42
2023/01/12 05:13:01;;;;;;;6.88;1.88;;;;;;;5.15;100.00;100095.75;4998836;28;20244;-42
2023/01/12 05:15:26;;;;;;;11.18;2.30;;;;;;;5.16;100.00;100098.38;4995024;28;20254;-43
2023/01/12 05:17:53;;;;;;;11.70;3.15;;;;;;;5.16;100.00;100089.56;4998640;28;20256;-44
2023/01/12 05:20:19;;;;;;;12.70;2.60;;;;;;;5.16;100.00;100081.59;5004605;28;20193;-43
2023/01/12 05:22:47;;;;;;;15.65;2.70;;;;;;;5.21;100.00;100084.97;4993318;28;20196;-41
2023/01/12 05:25:13;;;;;;;13.13;3.20;;;;;;;5.22;100.00;100085.84;5000366;28;20277;-42
2023/01/12 05:27:39;;;;;;;14.23;3.17;;;;;;;5.30;100.00;100084.69;5006457;28;20288;-41
2023/01/12 05:30:05;;;;;;;13.23;2.40;;;;;;;5.25;100.00;100076.00;5007216;28;20660;-42
2023/01/12 05:32:39;;;;;;;13.57;2.92;;;;;;;5.31;100.00;100074.94;5004236;28;20200;-43
2023/01/12 05:35:06;;;;;;;15.73;2.67;;;;;;;5.34;100.00;100070.44;4998656;28;20204;-41
2023/01/12 05:37:32;;;;;;;11.98;2.72;;;;;;;5.42;100.00;100069.31;4998512;28;20178;-44
2023/01/12 05:39:57;;;;;;;10.82;2.65;;;;;;;5.45;100.00;100069.25;5008833;28;20227;-42
2023/01/12 05:45:07;;;;;;;11.20;2.45;;;;;;;5.45;100.00;100045.34;5007756;28;20733;-40
2023/01/12 05:47:33;;;;;;;10.95;3.42;;;;;;;5.50;100.00;100044.28;5003043;28;20209;-42
2023/01/12 05:49:58;;;;;;;11.95;2.72;;;;;;;5.50;100.00;100044.28;4998471;28;20251;-42
2023/01/12 05:52:24;;;;;;;11.32;3.58;;;;;;;5.53;100.00;100032.66;4998250;28;20803;-41
2023/01/12 05:54:49;;;;;;;10.65;3.15;;;;;;;5.54;100.00;100037.94;4999644;28;20209;-41
2023/01/12 05:57:15;;;;;;;20.88;4.13;;;;;;;5.63;100.00;100034.16;5007108;28;20560;-41
2023/01/12 05:59:40;;;;;;;14.98;3.90;;;;;;;5.71;100.00;100029.47;5005721;28;20251;-42
2023/01/12 06:02:10;;;;;;;15.85;3.10;;;;;;;5.75;100.00;100023.16;4997910;28;20193;-42
2023/01/12 06:04:37;;;;;;;14.70;3.30;;;;;;;5.74;100.00;100013.41;4999942;28;20206;-41
2023/01/12 06:07:02;;;;;;;13.02;3.45;;;;;;;5.77;100.00;100008.03;5000639;28;20225;-42
2023/01/12 06:09:28;;;;;;;12.18;3.47;;;;;;;5.74;100.00;100005.44;5000716;28;20248;-42
2023/01/12 06:14:38;;;;;;;14.13;3.35;;;;;;;5.81;100.00;100007.91;4999859;28;20221;-41
2023/01/12 06:17:03;;;;;;;17.38;4.13;;;;;;;5.74;100.00;100002.78;4996461;28;20185;-42
2023/01/12 06:19:29;;;;;;;9.30;3.35;;;;;;;5.76;100.00;100000.09;5000776;28;20263;-42
2023/01/12 06:21:58;;;;;;;14.65;3.65;;;;;;;5.77;100.00;99994.72;4993756;28;20185;-41
2023/01/12 06:24:24;;;;;;;11.38;3.20;;;;;;;5.90;100.00;100004.94;4994315;28;20274;-42
2023/01/12 06:26:50;;;;;;;10.77;3.30;;;;;;;5.82;100.00;99999.03;5001178;28;20231;-40
2023/01/12 06:29:15;;;;;;;11.15;3.13;;;;;;;5.74;100.00;100002.78;4991431;28;20220;-43
2023/01/12 06:31:42;;;;;;;15.32;4.38;;;;;;;5.69;100.00;99983.47;4997435;28;20687;-44
2023/01/12 06:34:08;;;;;;;10.80;4.50;;;;;;;5.68;100.00;99986.16;4992664;28;20553;-42
2023/01/12 06:36:34;;;;;;;13.63;3.90;;;;;;;5.70;100.00;99986.97;5001246;28;20333;-45
2023/01/12 06:39:01;;;;;;;15.65;4.57;;;;;;;5.66;100.00;99972.06;5003311;28;20711;-46
2023/01/12 06:44:10;;;;;;;16.38;6.10;;;;;;;5.64;100.00;99963.25;4996609;28;20210;-47
2023/01/12 06:46:36;;;;;;;18.73;5.57;;;;;;;5.65;100.00;99959.69;4997889;28;20288;-47
2023/01/12 06:49:01;;;;;;;12.27;6.32;;;;;;;5.66;100.00;99959.63;4997420;28;20184;-45
2023/01/12 06:51:27;;;;;;;14.70;6.95;;;;;;;5.67;100.00;99960.53;4997275;28;20185;-47
2023/01/12 06:53:53;;;;;;;9.10;6.68;;;;;;;5.68;100.00;99949.81;4999733;28;20564;-46
2023/01/12 06:56:18;;;;;;;14.82;7.38;;;;;;;5.73;100.00;99926.63;4993928;28;20189;-46
2023/01/12 06:58:44;;;;;;;14.20;6.93;;;;;;;5.71;100.00;99912.53;4999948;28;20188;-46
2023/01/12 07:01:10;;;;;;;11.93;7.32;;;;;;;5.77;100.00;99907.03;4998290;28;20547;-47
2023/01/12 07:03:35;;;;;;;12.75;7.45;;;;;;;5.73;100.00;99905.38;4992573;28;20279;-46
2023/01/12 07:06:01;;;;;;;16.30;7.45;;;;;;;5.74;100.00;99904.44;5003358;28;20235;-46
2023/01/12 07:08:27;;;;;;;13.40;7.35;;;;;;;5.74;100.00;99896.47;4997047;28;20184;-45
2023/01/12 07:10:53;;;;;;;13.38;6.97;;;;;;;5.75;100.00;99898.22;4998251;28;20275;-45
2023/01/12 07:13:18;;;;;;;10.88;6.97;;;;;;;5.76;100.00;99881.34;5001288;28;20212;-46
2023/01/12 07:15:44;;;;;;;10.68;6.85;;;;;;;5.77;100.00;99875.13;4997166;28;20197;-46
2023/01/12 07:18:09;;;;;;;12.15;6.07;;;;;;;5.78;100.00;99870.66;4998591;28;20667;-47
2023/01/12 07:20:35;;;;;;;10.18;5.78;;;;;;;5.82;100.00;99864.34;5001332;28;20259;-47
2023/01/12 07:23:00;;;;;;;12.02;6.07;;;;;;;5.84;100.00;99864.25;5005019;28;20553;-46
2023/01/12 07:25:26;;;;;;;7.00;4.90;;;;;;;5.85;100.00;99858.91;5004103;28;20220;-48
2023/01/12 07:27:56;;;;;;;7.30;4.55;;;;;;;5.90;100.00;99848.09;4998186;28;20216;-45
2023/01/12 07:30:23;;;;;;;7.60;4.43;;;;;;;5.91;100.00;99848.06;4999875;28;20738;-47
2023/01/12 07:32:49;;;;;;;6.45;4.43;;;;;;;5.92;100.00;99833.81;4995810;28;20276;-46
2023/01/12 07:35:16;;;;;;;9.68;4.63;;;;;;;5.93;100.00;99822.28;4998778;28;20335;-46
2023/01/12 07:37:49;;;;;;;6.68;4.38;;;;;;;5.93;100.00;99843.56;4999611;28;20627;-46
2023/01/12 07:40:15;;;;;;;7.18;4.20;;;;;;;5.98;100.00;99836.31;5001074;28;20184;-48
2023/01/12 07:42:40;;;;;;;7.57;4.47;;;;;;;6.05;100.00;99834.28;5003693;28;20545;-47
2023/01/12 07:45:06;;;;;;;8.00;4.75;;;;;;;6.07;100.00;99823.63;5008266;28;20223;-48
2023/01/12 07:47:32;;;;;;;6.78;4.40;;;;;;;6.09;100.00;99816.44;5002807;28;20219;-46
2023/01/12 07:49:57;;;;;;;6.38;3.92;;;;;;;6.09;100.00;99819.97;4996188;28;20193;-46
2023/01/12 07:52:23;;;;;;;6.10;3.72;;;;;;;6.11;100.00;99804.84;5004810;28;20181;-47
2023/01/12 07:54:48;;;;;;;4.85;3.63;;;;;;;6.09;100.00;99793.38;4999368;28;20228;-46
2023/01/12 07:57:14;;;;;;;7.88;4.13;;;;;;;6.11;100.00;99794.19;5000659;28;20250;-46
2023/01/12 07:59:39;;;;;;;4.28;3.60;;;;;;;6.13;100.00;99792.34;5001917;28;20644;-46
2023/01/12 08:02:06;;;;;;;4.88;3.55;;;;;;;6.12;100.00;99787.06;5001763;28;20219;-48
2023/01/12 08:04:31;;;;;;;5.10;3.80;;;;;;;6.17;100.00;99787.78;5003017;28;20210;-47
2023/01/12 08:06:57;;;;;;;5.38;3.63;;;;;;;6.19;100.00;99768.19;5002083;28;20544;-45
2023/01/12 08:09:23;;;;;;;7.68;3.42;;;;;;;6.19;100.00;99775.31;5007888;28;20661;-46
2023/01/12 08:11:48;;;;;;;6.18;3.33;;;;;;;6.19;100.00;99767.34;5006476;28;20267;-46
2023/01/12 08:14:39;;;;;;;6.18;3.35;;;;;;;6.23;100.00;99765.41;5001561;28;20223;-48
2023/01/12 08:17:17;;;;;;;5.20;2.85;;;;;;;6.24;100.00;99752.06;4997505;28;20281;-46
2023/01/12 08:19:49;;;;;;;3.28;2.90;;;;;;;6.24;100.00;99751.19;4998897;28;20238;-45
2023/01/12 08:22:26;;;;;;;5.88;3.25;;;;;;;6.33;100.00;99726.91;4993527;28;20177;-46
2023/01/12 08:24:58;;;;;;;3.65;2.90;;;;;;;6.30;100.00;99721.72;4998244;28;20241;-48
2023/01/12 08:27:27;;;;;;;5.32;3.03;;;;;;;6.34;100.00;99717.97;5000628;28;20197;-47
2023/01/12 08:29:57;;;;;;;4.07;2.67;;;;;;;6.38;100.00;99723.16;4996433;28;20196;-46
2023/01/12 08:32:25;;;;;;;5.10;3.05;;;;;;;6.36;100.00;99700.16;4998977;28;20718;-48
2023/01/12 08:34:52;;;;;;;3.45;2.58;;;;;;;6.35;100.00;99683.34;5000260;28;20651;-45
2023/01/12 08:37:21;;;;;;;3.90;2.50;;;;;;;6.38;100.00;99677.94;4997638;28;20189;-47
2023/01/12 08:39:48;;;;;;;4.57;2.67;;;;;;;6.40;100.00;99672.53;5008338;28;20189;-46
2023/01/12 08:42:13;;;;;;;2.60;2.10;;;;;;;6.38;100.00;99647.78;4996770;28;20199;-46
2023/01/12 08:44:39;;;;;;;4.18;2.17;;;;;;;6.37;100.00;99636.28;4997714;28;20224;-47
2023/01/12 08:47:13;;;;;;;3.13;2.28;;;;;;;6.37;100.00;99638.94;4999289;28;20653;-45
2023/01/12 08:49:39;;;;;;;2.17;1.95;;;;;;;6.39;100.00;99631.75;4999201;28;20533;-46
2023/01/12 08:52:04;;;;;;;5.25;2.72;;;;;;;6.40;100.00;99620.16;5000881;28;20267;-47
2023/01/12 08:54:30;;;;;;;3.08;1.85;;;;;;;6.40;100.00;99609.53;4999158;28;20217;-46
2023/01/12 08:56:55;;;;;;;4.47;2.42;;;;;;;6.46;100.00;99611.09;5005244;28;20250;-46
2023/01/12 08:59:21;;;;;;;3.35;2.13;;;;;;;6.47;100.00;99607.50;5003256;28;20216;-47
2023/01/12 09:01:47;;;;;;;2.00;1.80;;;;;;;6.48;100.00;99595.06;5001019;28;20263;-47
2023/01/12 09:04:12;;;;;;;2.63;1.83;;;;;;;6.52;100.00;99602.84;5007179;28;20196;-46
2023/01/12 09:06:40;;;;;;;2.78;2.08;;;;;;;6.57;100.00;99600.00;4998327;28;20589;-46
2023/01/12 09:09:09;;;;;;;2.17;1.95;;;;;;;6.59;100.00;99584.84;4999144;28;20220;-47
2023/01/12 09:11:36;;;;;;;3.10;1.77;;;;;;;6.57;100.00;99592.88;5001125;28;20231;-49
2023/01/12 09:14:02;;;;;;;4.38;2.28;;;;;;;6.59;100.00;99593.69;5001031;28;20203;-46
2023/01/12 09:16:29;;;;;;;3.75;2.00;;;;;;;6.59;100.00;99588.34;4995073;28;20593;-46
2023/01/12 09:18:55;;;;;;;2.45;1.70;;;;;;;6.58;100.00;99583.09;5001569;28;20189;-48
2023/01/12 09:21:24;;;;;;;2.05;1.60;;;;;;;6.60;100.00;99574.13;5000763;28;20184;-47
2023/01/12 09:23:50;;;;;;;2.65;1.63;;;;;;;6.62;100.00;99575.84;5005328;28;20201;-47
2023/01/12 09:26:25;;;;;;;1.55;1.40;;;;;;;6.64;100.00;99576.66;5001806;28;20212;-45
2023/01/12 09:28:51;;;;;;;2.20;1.50;;;;;;;6.69;100.00;99580.88;4999432;28;20192;-46
2023/01/12 09:31:19;;;;;;;2.70;1.42;;;;;;;6.67;100.00;99571.19;4995604;28;20189;-45
2023/01/12 09:33:45;;;;;;;2.80;1.40;;;;;;;6.71;100.00;99575.47;5001246;28;20182;-47
2023/01/12 09:36:19;;;;;;;1.50;1.40;;;;;;;6.67;100.00;99569.41;4998803;28;20713;-44
2023/01/12 09:38:45;;;;;;;2.80;1.20;;;;;;;6.71;100.00;99567.47;4998802;28;20239;-47
2023/01/12 09:41:15;;;;;;;2.97;1.27;;;;;;;6.77;100.00;99556.56;4999815;28;20181;-48
2023/01/12 09:49:25;;;;;;;1.02;0.80;;;;;;;6.81;100.00;99558.16;5000117;28;20209;-46
2023/01/12 09:52:09;;;;;;;1.70;0.93;;;;;;;6.81;100.00;99526.22;5006069;28;20216;-48
2023/01/12 09:54:35;;;;;;;0.98;0.80;;;;;;;6.85;100.00;99527.81;5005665;28;20259;-46
2023/01/12 09:57:33;;;;;;;2.22;1.15;;;;;;;7.02;100.00;99545.72;5007077;28;20200;-46
2023/01/12 10:00:05;;;;;;;0.93;0.70;;;;;;;6.89;100.00;99548.06;5000916;28;20661;-48
2023/01/12 10:02:42;;;;;;;1.08;0.80;;;;;;;6.92;100.00;99552.38;4996709;28;20190;-48
2023/01/12 10:05:33;;;;;;;1.15;0.60;;;;;;;6.99;100.00;99540.53;4998315;28;20213;-47
2023/01/12 10:07:59;;;;;;;1.00;0.70;;;;;;;7.01;100.00;99528.88;4978106;28;20229;-48
2023/01/12 10:10:25;;;;;;;0.77;0.77;;;;;;;7.03;100.00;99538.59;5001993;28;20192;-47
2023/01/12 10:12:56;;;;;;;1.88;1.00;;;;;;;7.05;100.00;99536.75;5001153;28;20260;-47
2023/01/12 10:15:34;;;;;;;0.80;0.70;;;;;;;7.12;100.00;99532.84;4995335;28;20270;-48
2023/01/12 10:18:08;;;;;;;0.75;0.70;;;;;;;7.12;100.00;99536.38;4996156;28;20588;-46
2023/01/12 10:20:38;;;;;;;1.63;0.75;;;;;;;7.14;100.00;99539.84;5001320;28;20492;-45
2023/01/12 10:23:06;;;;;;;0.80;0.80;;;;;;;7.15;100.00;99543.34;4996787;28;20199;-46
2023/01/12 10:25:49;;;;;;;1.90;1.17;;;;;;;7.18;100.00;99540.56;4999090;28;20205;-44
2023/01/12 10:28:14;;;;;;;3.17;0.70;;;;;;;7.19;100.00;99535.19;4999659;28;20214;-46
2023/01/12 10:30:40;;;;;;;1.50;0.77;;;;;;;7.25;100.00;99539.34;5003911;28;20200;-47
2023/01/12 10:33:13;;;;;;;0.63;0.63;;;;;;;7.27;100.00;99521.50;5003007;28;20566;-46
2023/01/12 10:35:53;;;;;;;1.60;0.68;;;;;;;7.37;100.00;99517.50;4997011;28;20689;-47
2023/01/12 10:38:28;;;;;;;1.58;0.65;;;;;;;7.43;100.00;99540.31;4996698;28;20691;-47
2023/01/12 10:41:15;;;;;;;1.35;0.80;;;;;;;7.59;100.00;99528.00;4999223;28;20188;-46
2023/01/12 10:43:43;;;;;;;1.00;0.50;;;;;;;7.59;100.00;99520.03;4998865;28;20395;-47
2023/01/12 10:46:17;;;;;;;0.63;0.40;;;;;;;7.60;100.00;99524.41;4997312;28;20205;-45
2023/01/12 10:48:48;;;;;;;0.50;0.50;;;;;;;7.63;100.00;99526.94;4994284;28;20219;-45
2023/01/12 10:51:28;;;;;;;1.42;0.60;;;;;;;7.74;100.00;99513.09;4998828;28;20735;-45
2023/01/12 10:53:55;;;;;;;1.33;0.70;;;;;;;7.72;100.00;99514.97;4997788;28;20222;-47
2023/01/12 10:56:41;;;;;;;1.60;0.80;;;;;;;7.76;100.00;99521.00;4994139;28;20706;-46
2023/01/12 10:59:16;;;;;;;1.77;0.90;;;;;;;7.78;100.00;99511.13;5004147;28;20632;-46
2023/01/12 11:01:46;;;;;;;0.73;0.60;;;;;;;7.78;100.00;99522.69;4994294;28;20191;-46
2023/01/12 11:04:21;;;;;;;1.73;0.70;;;;;;;7.75;100.00;99520.16;4992867;28;20287;-46
2023/01/12 11:07:27;;;;;;;0.93;0.80;;;;;;;7.79;100.00;99526.22;4997778;28;20270;-47
2023/01/12 11:09:56;;;;;;;1.40;0.80;;;;;;;7.80;100.00;99515.44;4997053;28;20244;-47
2023/01/12 11:12:30;;;;;;;1.10;0.68;;;;;;;7.88;100.00;99515.09;4998185;28;20185;-46
2023/01/12 11:15:17;;;;;;;3.40;0.70;;;;;;;7.96;100.00;99509.38;4995577;28;20208;-47
2023/01/12 11:18:01;;;;;;;0.68;0.68;;;;;;;7.98;100.00;99528.84;5005900;28;20263;-47
2023/01/12 11:20:59;;;;;;;0.63;0.55;;;;;;;8.07;100.00;99515.06;5002952;28;20239;-46
2023/01/12 11:23:53;;;;;;;1.52;0.50;;;;;;;8.14;100.00;99528.97;5001243;28;20532;-47
2023/01/12 11:26:26;;;;;;;1.00;0.57;;;;;;;8.15;100.00;99531.53;4999257;28;20185;-44
2023/01/12 11:28:57;;;;;;;1.05;0.60;;;;;;;8.16;100.00;99533.28;5000421;28;20546;-45
2023/01/12 11:31:34;;;;;;;1.05;0.57;;;;;;;8.18;100.00;99528.75;5001797;28;20211;-46
2023/01/12 11:34:15;;;;;;;1.92;0.68;;;;;;;8.21;100.00;99541.94;5001295;28;20193;-46
2023/01/12 11:36:46;;;;;;;2.25;0.80;;;;;;;8.27;100.00;99529.25;5003022;28;20216;-44
2023/01/12 11:39:21;;;;;;;4.15;1.02;;;;;;;8.28;100.00;99528.28;5013695;28;20188;-44
2023/01/12 11:44:47;;;;;;;2.00;0.80;;;;;;;8.31;100.00;99523.66;5007167;28;20200;-45
2023/01/12 11:47:15;;;;;;;4.07;1.00;;;;;;;8.36;100.00;99534.13;5002729;28;20199;-45
2023/01/12 11:49:43;;;;;;;3.03;1.10;;;;;;;8.31;100.00;99534.34;4998094;28;20189;-46
2023/01/12 11:52:10;;;;;;;3.38;0.73;;;;;;;8.31;100.00;99538.78;5001372;28;20173;-46
2023/01/12 11:54:38;;;;;;;2.45;0.80;;;;;;;8.34;100.00;99533.31;4998971;28;20684;-45
2023/01/12 11:57:15;;;;;;;2.55;0.70;;;;;;;8.33;100.00;99553.81;5002236;28;20172;-44
2023/01/12 11:59:49;;;;;;;3.60;0.80;;;;;;;8.31;100.00;99553.03;5001488;28;20219;-44
2023/01/12 12:02:54;;;;;;;3.05;0.70;;;;;;;8.32;100.00;99568.09;4999587;28;20180;-47
2023/01/12 12:05:41;;;;;;;7.28;1.40;;;;;;;8.37;100.00;99546.50;4995521;28;20311;-46
2023/01/12 12:08:21;;;;;;;7.63;2.00;;;;;;;8.41;100.00;99551.63;5000006;28;20288;-47
2023/01/12 12:11:07;;;;;;;7.68;2.22;;;;;;;8.40;100.00;99539.25;5001131;28;20569;-45
2023/01/12 12:13:56;;;;;;;8.90;1.88;;;;;;;8.42;100.00;99539.19;4998984;28;20182;-46
2023/01/12 12:16:36;;;;;;;12.88;2.67;;;;;;;8.37;100.00;99541.16;5000881;28;20181;-46